createdAt,value
2023-01-30T00:01:29.798Z,9.77
2023-01-30T00:03:56.843Z,10.88
2023-01-30T00:06:24.787Z,10.57
2023-01-30T00:08:52.374Z,9.88
2023-01-30T00:11:20.629Z,9.80
2023-01-30T00:13:51.347Z,9.75
2023-01-30T00:16:18.706Z,10.13
2023-01-30T00:18:46.359Z,10.55
2023-01-30T00:21:14.949Z,10.25
2023-01-30T00:23:42.632Z,10.90
2023-01-30T00:26:11.534Z,10.98
2023-01-30T00:28:39.675Z,11.20
2023-01-30T00:31:07.863Z,10.77
2023-01-30T00:33:37.674Z,11.25
2023-01-30T00:36:05.581Z,11.07
2023-01-30T00:38:32.786Z,12.00
2023-01-30T00:40:59.751Z,11.05
2023-01-30T00:43:45.385Z,10.82
2023-01-30T00:46:45.655Z,11.60
2023-01-30T00:49:12.802Z,10.85
2023-01-30T00:51:39.781Z,12.15
2023-01-30T00:54:06.928Z,11.43
2023-01-30T00:56:34.124Z,11.98
2023-01-30T00:59:01.345Z,12.13
2023-01-30T01:01:28.339Z,12.25
2023-01-30T01:03:55.164Z,11.18
2023-01-30T01:06:22.114Z,11.32
2023-01-30T01:08:49.181Z,11.60
2023-01-30T01:11:24.739Z,11.80
2023-01-30T01:13:58.836Z,12.70
2023-01-30T01:16:27.101Z,12.25
2023-01-30T01:18:54.627Z,11.65
2023-01-30T01:21:22.110Z,11.88
2023-01-30T01:23:57.975Z,11.77
2023-01-30T01:26:25.480Z,12.95
2023-01-30T01:28:59.210Z,12.15
2023-01-30T01:31:26.836Z,11.52
2023-01-30T01:33:55.950Z,11.73
2023-01-30T01:39:10.475Z,12.55
2023-01-30T01:41:37.438Z,11.90
2023-01-30T01:44:09.459Z,12.70
2023-01-30T01:46:52.106Z,12.63
2023-01-30T01:49:35.857Z,12.80
2023-01-30T01:52:10.097Z,12.60
2023-01-30T01:55:07.656Z,12.32
2023-01-30T01:57:43.768Z,12.75
2023-01-30T02:00:16.259Z,12.32
2023-01-30T02:02:58.552Z,12.57
2023-01-30T02:05:31.334Z,12.32
2023-01-30T02:09:00.206Z,13.52
2023-01-30T02:11:46.689Z,13.52
2023-01-30T02:14:15.151Z,13.55
2023-01-30T02:16:44.109Z,13.60
2023-01-30T02:19:58.181Z,13.80
2023-01-30T02:22:58.968Z,14.25
2023-01-30T02:26:27.624Z,13.07
2023-01-30T02:28:58.075Z,13.90
2023-01-30T02:32:07.902Z,13.80
2023-01-30T02:35:36.352Z,12.75
2023-01-30T02:38:28.036Z,13.88
2023-01-30T02:41:22.421Z,13.95
2023-01-30T02:44:02.034Z,15.13
2023-01-30T02:46:43.365Z,14.93
2023-01-30T02:49:28.259Z,14.40
2023-01-30T02:51:58.166Z,14.13
2023-01-30T02:54:25.678Z,14.90
2023-01-30T02:56:57.881Z,13.88
2023-01-30T02:59:41.523Z,14.77
2023-01-30T03:02:38.709Z,15.57
2023-01-30T03:05:20.775Z,14.13
2023-01-30T03:08:13.035Z,13.32
2023-01-30T03:11:05.112Z,15.18
2023-01-30T03:14:15.093Z,14.40
2023-01-30T03:16:42.419Z,14.30
2023-01-30T03:19:13.876Z,16.90
2023-01-30T03:21:45.539Z,14.82
2023-01-30T03:24:14.214Z,13.70
2023-01-30T03:27:00.735Z,15.48
2023-01-30T03:29:27.696Z,15.18
2023-01-30T03:31:55.318Z,15.30
2023-01-30T03:34:22.417Z,16.50
2023-01-30T03:36:50.080Z,14.48
2023-01-30T03:39:17.151Z,15.40
2023-01-30T03:41:44.193Z,14.23
2023-01-30T03:44:11.226Z,15.25
2023-01-30T03:46:39.499Z,13.95
2023-01-30T03:49:06.565Z,14.23
2023-01-30T03:51:33.696Z,14.45
2023-01-30T03:54:01.269Z,14.07
2023-01-30T03:56:29.114Z,14.63
2023-01-30T03:58:56.857Z,15.52
2023-01-30T04:04:00.108Z,14.00
2023-01-30T04:06:27.138Z,15.20
2023-01-30T04:08:54.302Z,14.38
2023-01-30T04:11:39.577Z,14.38
2023-01-30T04:14:06.608Z,14.90
2023-01-30T04:16:40.860Z,13.93
2023-01-30T04:19:26.617Z,14.13
2023-01-30T04:21:53.843Z,14.23
2023-01-30T04:24:21.519Z,15.77
2023-01-30T04:26:49.533Z,15.07
2023-01-30T04:29:16.854Z,13.25
2023-01-30T04:31:46.008Z,14.05
2023-01-30T04:34:22.184Z,14.23
2023-01-30T04:36:49.433Z,14.32
2023-01-30T04:39:17.463Z,13.45
2023-01-30T04:41:44.463Z,15.02
2023-01-30T04:44:11.409Z,14.35
2023-01-30T04:46:57.911Z,13.77
2023-01-30T04:49:25.463Z,14.75
2023-01-30T04:51:53.680Z,15.25
2023-01-30T04:54:20.839Z,13.88
2023-01-30T04:56:47.819Z,12.90
2023-01-30T04:59:15.685Z,12.90
2023-01-30T05:01:45.030Z,13.30
2023-01-30T05:04:11.999Z,13.63
2023-01-30T05:06:38.871Z,12.63
2023-01-30T05:09:06.310Z,12.95
2023-01-30T05:11:34.222Z,13.80
2023-01-30T05:14:01.625Z,13.48
2023-01-30T05:16:29.117Z,13.60
2023-01-30T05:18:56.072Z,14.13
2023-01-30T05:21:27.701Z,13.73
2023-01-30T05:23:56.079Z,13.98
2023-01-30T05:26:23.821Z,13.70
2023-01-30T05:29:00.285Z,14.60
2023-01-30T05:31:27.283Z,13.32
2023-01-30T05:33:54.968Z,12.90
2023-01-30T05:36:23.542Z,15.55
2023-01-30T05:38:50.444Z,13.70
2023-01-30T05:41:18.187Z,13.70
2023-01-30T05:43:50.479Z,13.43
2023-01-30T05:46:18.149Z,13.68
2023-01-30T05:48:45.262Z,14.68
2023-01-30T05:51:25.198Z,15.05
2023-01-30T05:53:52.530Z,14.48
2023-01-30T05:56:20.031Z,14.90
2023-01-30T05:58:55.597Z,13.43
2023-01-30T06:01:23.338Z,13.90
2023-01-30T06:03:50.725Z,14.60
2023-01-30T06:06:18.805Z,14.20
2023-01-30T06:08:46.152Z,14.93
2023-01-30T06:11:17.300Z,13.65
2023-01-30T06:13:44.786Z,13.70
2023-01-30T06:16:14.290Z,15.00
2023-01-30T06:18:41.541Z,14.60
2023-01-30T06:21:09.517Z,15.50
2023-01-30T06:23:36.527Z,14.63
2023-01-30T06:26:05.887Z,14.57
2023-01-30T06:28:36.052Z,14.45
2023-01-30T06:31:03.192Z,13.38
2023-01-30T06:33:30.267Z,13.50
2023-01-30T06:35:57.157Z,13.75
2023-01-30T06:38:26.080Z,14.38
2023-01-30T06:40:53.313Z,13.63
2023-01-30T06:43:20.610Z,13.13
2023-01-30T06:45:47.588Z,15.70
2023-01-30T06:48:15.112Z,12.98
2023-01-30T06:50:42.063Z,14.10
2023-01-30T06:53:09.263Z,13.82
2023-01-30T06:55:36.578Z,14.60
2023-01-30T06:58:08.301Z,13.73
2023-01-30T07:00:36.747Z,14.57
2023-01-30T07:03:03.961Z,13.98
2023-01-30T07:05:31.280Z,14.13
2023-01-30T07:07:58.307Z,13.38
2023-01-30T07:10:26.133Z,13.55
2023-01-30T07:12:53.999Z,13.48
2023-01-30T07:15:21.232Z,12.93
2023-01-30T07:17:48.513Z,14.30
2023-01-30T07:20:15.793Z,13.90
2023-01-30T07:22:42.775Z,12.90
2023-01-30T07:25:10.044Z,13.18
2023-01-30T07:27:36.971Z,12.13
2023-01-30T07:30:04.578Z,11.73
2023-01-30T07:32:31.527Z,11.27
2023-01-30T07:34:58.628Z,11.40
2023-01-30T07:37:25.618Z,12.13
2023-01-30T07:39:52.635Z,11.05
2023-01-30T07:42:19.589Z,10.85
2023-01-30T07:44:46.548Z,11.07
2023-01-30T07:47:13.565Z,10.23
2023-01-30T07:49:40.422Z,10.05
2023-01-30T07:52:07.274Z,9.00
2023-01-30T07:54:34.591Z,9.45
2023-01-30T07:57:01.411Z,8.93
2023-01-30T07:59:28.708Z,9.85
2023-01-30T08:01:56.926Z,8.73
2023-01-30T08:04:24.102Z,9.60
2023-01-30T08:06:51.873Z,9.43
2023-01-30T08:09:18.918Z,8.95
2023-01-30T08:11:45.828Z,7.35
2023-01-30T08:14:13.103Z,7.65
2023-01-30T08:16:40.386Z,7.65
2023-01-30T08:19:07.646Z,6.68
2023-01-30T08:21:34.538Z,5.93
2023-01-30T08:24:01.614Z,6.53
2023-01-30T08:26:28.715Z,6.70
2023-01-30T08:28:55.995Z,5.75
2023-01-30T08:31:23.323Z,5.70
2023-01-30T08:33:50.415Z,5.30
2023-01-30T08:36:17.395Z,4.82
2023-01-30T08:38:45.273Z,5.40
2023-01-30T08:41:12.380Z,4.72
2023-01-30T08:43:39.384Z,4.55
2023-01-30T08:46:06.506Z,4.65
2023-01-30T08:48:47.337Z,5.10
2023-01-30T08:51:15.920Z,4.15
2023-01-30T08:53:42.824Z,3.72
2023-01-30T08:56:09.894Z,3.85
2023-01-30T08:58:36.869Z,4.55
2023-01-30T09:01:07.653Z,4.43
2023-01-30T09:03:35.168Z,3.40
2023-01-30T09:06:02.214Z,3.75
2023-01-30T09:08:29.235Z,3.65
2023-01-30T09:11:04.704Z,3.75
2023-01-30T09:13:32.826Z,4.10
2023-01-30T09:15:59.736Z,3.65
2023-01-30T09:18:27.035Z,3.00
2023-01-30T09:21:03.837Z,2.95
2023-01-30T09:23:30.787Z,3.28
2023-01-30T09:25:57.765Z,3.17
2023-01-30T09:28:24.898Z,2.97
2023-01-30T09:30:52.125Z,2.92
2023-01-30T09:33:20.354Z,2.92
2023-01-30T09:35:48.516Z,2.42
2023-01-30T09:38:16.533Z,3.50
2023-01-30T09:41:55.417Z,3.08
2023-01-30T09:44:49.222Z,2.17
2023-01-30T09:47:41.715Z,3.15
2023-01-30T09:50:36.293Z,3.13
2023-01-30T09:53:22.979Z,2.58
2023-01-30T09:55:50.226Z,2.65
2023-01-30T09:58:23.180Z,2.70
2023-01-30T10:00:59.128Z,2.75
2023-01-30T10:03:50.456Z,2.28
2023-01-30T10:06:17.937Z,2.70
2023-01-30T10:09:17.523Z,2.88
2023-01-30T10:12:25.231Z,2.22
2023-01-30T10:15:22.648Z,3.97
2023-01-30T10:21:09.801Z,2.65
2023-01-30T10:24:04.524Z,2.30
2023-01-30T10:26:31.875Z,2.25
2023-01-30T10:29:52.717Z,2.45
2023-01-30T10:32:33.907Z,2.50
2023-01-30T10:35:20.874Z,2.72
2023-01-30T10:40:42.822Z,2.90
2023-01-30T10:43:23.791Z,3.35
2023-01-30T10:46:15.535Z,2.47
2023-01-30T10:49:07.158Z,2.47
2023-01-30T10:51:39.029Z,2.50
2023-01-30T10:54:19.645Z,2.50
2023-01-30T10:57:16.101Z,3.03
2023-01-30T11:00:05.649Z,2.53
2023-01-30T11:03:09.476Z,2.70
2023-01-30T11:05:53.488Z,2.25
2023-01-30T11:08:23.838Z,3.25
2023-01-30T11:10:52.410Z,3.47
2023-01-30T11:13:30.151Z,2.85
2023-01-30T11:16:01.430Z,2.40
2023-01-30T11:24:30.082Z,4.32
2023-01-30T11:27:18.980Z,3.92
2023-01-30T11:29:47.811Z,2.95
2023-01-30T11:32:28.416Z,2.58
2023-01-30T11:35:07.365Z,2.50
2023-01-30T11:37:36.701Z,4.07
2023-01-30T11:40:19.329Z,3.28
2023-01-30T11:43:11.999Z,2.80
2023-01-30T11:45:45.202Z,2.85
2023-01-30T11:48:33.250Z,3.22
2023-01-30T11:51:16.619Z,2.58
2023-01-30T11:54:06.711Z,2.45
2023-01-30T11:56:57.725Z,2.22
2023-01-30T11:59:47.726Z,3.70
2023-01-30T12:02:25.599Z,2.88
2023-01-30T12:04:59.593Z,3.00
2023-01-30T12:07:29.698Z,3.10
2023-01-30T12:09:58.428Z,2.80
2023-01-30T12:12:48.184Z,2.35
2023-01-30T12:15:33.495Z,3.03
2023-01-30T12:18:18.273Z,1.38
2023-01-30T12:21:03.930Z,2.25
2023-01-30T12:24:12.818Z,2.00
2023-01-30T12:27:00.711Z,1.20
2023-01-30T12:29:41.905Z,1.92
2023-01-30T12:32:17.779Z,2.65
2023-01-30T12:34:45.735Z,3.00
2023-01-30T12:37:28.179Z,2.63
2023-01-30T12:40:31.956Z,2.60
2023-01-30T12:43:40.550Z,2.33
2023-01-30T12:46:41.649Z,2.85
2023-01-30T12:49:38.935Z,2.70
2023-01-30T12:52:46.019Z,3.40
2023-01-30T12:55:57.594Z,3.63
2023-01-30T12:58:38.979Z,3.45
2023-01-30T13:01:32.918Z,2.75
2023-01-30T13:04:40.080Z,3.28
2023-01-30T13:07:22.599Z,2.95
2023-01-30T13:10:15.519Z,3.65
2023-01-30T13:13:09.750Z,2.67
2023-01-30T13:16:15.817Z,3.38
2023-01-30T13:19:40.428Z,1.70
2023-01-30T13:22:17.809Z,2.78
2023-01-30T13:27:29.164Z,2.90
2023-01-30T13:29:57.899Z,2.00
2023-01-30T13:32:47.218Z,1.88
2023-01-30T13:35:23.493Z,2.03
2023-01-30T13:37:52.770Z,2.40
2023-01-30T13:40:25.526Z,2.78
2023-01-30T13:43:00.475Z,2.70
2023-01-30T13:45:34.173Z,2.38
2023-01-30T13:48:35.153Z,2.17
2023-01-30T13:51:44.897Z,2.13
2023-01-30T13:54:32.724Z,2.20
2023-01-30T13:57:22.847Z,1.75
2023-01-30T14:00:26.136Z,2.42
2023-01-30T14:03:08.386Z,2.20
2023-01-30T14:05:54.360Z,1.63
2023-01-30T14:08:45.731Z,2.90
2023-01-30T14:11:37.577Z,2.20
2023-01-30T14:14:26.860Z,1.83
2023-01-30T14:17:09.963Z,1.98
2023-01-30T14:19:44.524Z,1.80
2023-01-30T14:22:26.615Z,2.53
2023-01-30T14:25:27.749Z,2.00
2023-01-30T14:28:05.172Z,1.65
2023-01-30T14:30:32.150Z,2.22
2023-01-30T14:33:02.561Z,2.03
2023-01-30T14:35:33.231Z,1.30
2023-01-30T14:38:12.116Z,1.63
2023-01-30T14:40:58.773Z,1.30
2023-01-30T14:43:25.521Z,1.48
2023-01-30T14:45:58.918Z,1.10
2023-01-30T14:48:45.001Z,1.42
2023-01-30T14:51:39.240Z,1.00
2023-01-30T14:54:27.656Z,1.17
2023-01-30T14:57:05.579Z,0.70
2023-01-30T15:00:13.404Z,0.90
2023-01-30T15:02:49.846Z,0.60
2023-01-30T15:05:31.953Z,0.80
2023-01-30T15:08:07.936Z,0.90
2023-01-30T15:11:04.655Z,1.23
2023-01-30T15:14:23.297Z,1.10
2023-01-30T15:17:12.968Z,0.93
2023-01-30T15:19:52.015Z,0.93
2023-01-30T15:22:53.417Z,1.13
2023-01-30T15:25:52.552Z,1.45
2023-01-30T15:29:28.478Z,0.90
2023-01-30T15:32:01.066Z,1.52
2023-01-30T15:34:30.451Z,1.25
2023-01-30T15:36:57.789Z,1.70
2023-01-30T15:39:27.437Z,1.30
2023-01-30T15:42:06.690Z,1.13
2023-01-30T15:45:00.371Z,1.25
2023-01-30T15:48:01.623Z,1.35
2023-01-30T15:50:28.807Z,1.50
2023-01-30T15:52:58.288Z,2.25
2023-01-30T15:55:32.402Z,1.55
2023-01-30T15:58:12.207Z,1.20
2023-01-30T16:00:48.221Z,1.27
2023-01-30T16:03:31.668Z,1.85
2023-01-30T16:05:59.421Z,1.75
2023-01-30T16:08:30.491Z,1.83
2023-01-30T16:10:57.954Z,1.75
2023-01-30T16:13:25.119Z,1.95
2023-01-30T16:16:10.417Z,1.77
2023-01-30T16:18:49.834Z,1.90
2023-01-30T16:21:30.715Z,2.03
2023-01-30T16:24:21.477Z,1.73
2023-01-30T16:26:56.793Z,2.22
2023-01-30T16:29:27.473Z,2.05
2023-01-30T16:31:55.745Z,2.38
2023-01-30T16:34:27.748Z,2.30
2023-01-30T16:36:55.546Z,2.33
2023-01-30T16:39:37.643Z,2.10
2023-01-30T16:42:25.619Z,1.90
2023-01-30T16:45:35.574Z,2.40
2023-01-30T16:48:36.761Z,2.53
2023-01-30T16:51:22.953Z,2.78
2023-01-30T16:54:02.514Z,2.35
2023-01-30T16:56:33.563Z,2.75
2023-01-30T16:59:02.228Z,1.98
2023-01-30T17:01:41.418Z,1.92
2023-01-30T17:04:20.607Z,2.30
2023-01-30T17:07:01.488Z,2.60
2023-01-30T17:09:36.035Z,2.40
2023-01-30T17:12:25.631Z,3.70
2023-01-30T17:15:21.817Z,2.40
2023-01-30T17:17:49.365Z,1.70
2023-01-30T17:20:17.105Z,2.53
2023-01-30T17:22:47.469Z,2.83
2023-01-30T17:25:35.847Z,3.13
2023-01-30T17:28:03.019Z,3.05
2023-01-30T17:30:30.726Z,2.63
2023-01-30T17:32:57.578Z,2.65
2023-01-30T17:35:24.692Z,3.00
2023-01-30T17:38:04.629Z,2.00
2023-01-30T17:40:36.838Z,2.88
2023-01-30T17:43:04.792Z,3.15
2023-01-30T17:45:31.856Z,2.45
2023-01-30T17:47:58.924Z,3.33
2023-01-30T17:50:26.042Z,2.63
2023-01-30T17:52:53.189Z,2.63
2023-01-30T17:55:21.512Z,2.25
2023-01-30T17:57:49.454Z,3.00
2023-01-30T18:00:19.762Z,3.38
2023-01-30T18:02:47.373Z,3.30
2023-01-30T18:05:14.792Z,2.97
2023-01-30T18:07:42.735Z,3.40
2023-01-30T18:10:18.644Z,3.60
2023-01-30T18:12:45.858Z,3.33
2023-01-30T18:15:17.495Z,3.28
2023-01-30T18:17:47.990Z,3.00
2023-01-30T18:20:19.545Z,4.88
2023-01-30T18:22:46.993Z,2.95
2023-01-30T18:25:15.011Z,2.90
2023-01-30T18:27:44.160Z,4.43
2023-01-30T18:30:15.816Z,4.07
2023-01-30T18:32:52.481Z,4.07
2023-01-30T18:35:21.361Z,4.72
2023-01-30T18:37:48.407Z,3.55
2023-01-30T18:40:15.621Z,4.68
2023-01-30T18:42:42.566Z,3.38
2023-01-30T18:45:09.950Z,3.63
2023-01-30T18:47:37.619Z,3.10
2023-01-30T18:50:05.475Z,4.03
2023-01-30T18:52:32.887Z,4.18
2023-01-30T18:54:59.861Z,2.97
2023-01-30T18:57:26.915Z,4.35
2023-01-30T18:59:53.873Z,3.63
2023-01-30T19:02:21.111Z,4.03
2023-01-30T19:04:48.419Z,4.22
2023-01-30T19:07:15.254Z,4.22
2023-01-30T19:09:42.317Z,3.65
2023-01-30T19:12:28.104Z,3.45
2023-01-30T19:14:55.435Z,3.92
2023-01-30T19:17:22.530Z,3.38
2023-01-30T19:19:49.469Z,4.47
2023-01-30T19:22:18.116Z,3.33
2023-01-30T19:24:45.245Z,2.70
2023-01-30T19:27:13.802Z,3.80
2023-01-30T19:29:41.701Z,4.00
2023-01-30T19:32:09.453Z,3.13
2023-01-30T19:34:37.081Z,4.30
2023-01-30T19:37:04.085Z,3.33
2023-01-30T19:39:31.063Z,3.95
2023-01-30T19:41:58.072Z,5.57
2023-01-30T19:44:24.975Z,3.72
2023-01-30T19:46:52.069Z,3.65
2023-01-30T19:49:19.143Z,3.92
2023-01-30T19:51:46.286Z,3.38
2023-01-30T19:54:13.425Z,3.60
2023-01-30T19:56:42.374Z,3.40
2023-01-30T19:59:13.038Z,3.00
2023-01-30T20:01:40.542Z,4.30
2023-01-30T20:04:07.747Z,3.92
2023-01-30T20:06:37.428Z,3.08
2023-01-30T20:09:09.640Z,4.25
2023-01-30T20:11:40.268Z,4.07
2023-01-30T20:14:07.818Z,4.18
2023-01-30T20:16:35.622Z,3.58
2023-01-30T20:19:07.121Z,3.80
2023-01-30T20:21:36.042Z,5.13
2023-01-30T20:24:03.898Z,3.22
2023-01-30T20:26:35.655Z,3.28
2023-01-30T20:29:05.003Z,4.75
2023-01-30T20:31:33.542Z,3.65
2023-01-30T20:34:03.314Z,4.30
2023-01-30T20:36:30.448Z,3.22
2023-01-30T20:39:04.493Z,3.75
2023-01-30T20:41:36.490Z,4.57
2023-01-30T20:44:06.035Z,4.28
2023-01-30T20:46:45.706Z,3.55
2023-01-30T20:49:19.905Z,4.78
2023-01-30T20:51:52.766Z,4.03
2023-01-30T20:54:22.457Z,4.10
2023-01-30T20:56:53.145Z,3.55
2023-01-30T20:59:24.211Z,2.72
2023-01-30T21:01:52.144Z,3.60
2023-01-30T21:04:21.665Z,3.83
2023-01-30T21:06:48.734Z,2.97
2023-01-30T21:09:22.290Z,3.13
2023-01-30T21:11:51.036Z,2.65
2023-01-30T21:14:18.301Z,2.75
2023-01-30T21:16:46.262Z,2.83
2023-01-30T21:19:16.463Z,2.90
2023-01-30T21:21:54.126Z,3.17
2023-01-30T21:24:28.171Z,2.67
2023-01-30T21:26:56.773Z,2.42
2023-01-30T21:29:27.037Z,2.70
2023-01-30T21:31:56.010Z,2.85
2023-01-30T21:34:23.595Z,3.28
2023-01-30T21:37:09.068Z,2.85
2023-01-30T21:39:54.835Z,2.80
2023-01-30T21:42:40.582Z,2.53
2023-01-30T21:45:08.417Z,2.58
2023-01-30T21:47:35.345Z,2.63
2023-01-30T21:50:02.298Z,3.67
2023-01-30T21:52:32.979Z,2.50
2023-01-30T21:54:59.976Z,2.28
2023-01-30T21:57:27.347Z,3.22
2023-01-30T21:59:54.275Z,3.53
2023-01-30T22:02:21.693Z,2.95
2023-01-30T22:04:48.974Z,3.40
2023-01-30T22:07:15.899Z,3.53
2023-01-30T22:09:42.859Z,3.17
2023-01-30T22:12:10.920Z,2.80
2023-01-30T22:14:37.873Z,2.75
2023-01-30T22:17:04.991Z,2.33
2023-01-30T22:19:35.600Z,2.55
2023-01-30T22:22:03.169Z,2.50
2023-01-30T22:24:30.408Z,2.20
2023-01-30T22:26:57.767Z,2.40
2023-01-30T22:29:25.083Z,2.22
2023-01-30T22:31:52.765Z,2.80
2023-01-30T22:34:20.059Z,2.28
2023-01-30T22:36:47.969Z,2.40
2023-01-30T22:39:14.907Z,2.30
2023-01-30T22:41:41.997Z,3.53
2023-01-30T22:44:10.599Z,3.15
2023-01-30T22:46:39.855Z,2.60
2023-01-30T22:49:09.189Z,4.25
2023-01-30T22:51:39.734Z,4.07
2023-01-30T22:54:11.232Z,3.70
2023-01-30T22:56:41.611Z,2.78
2023-01-30T22:59:09.567Z,3.22
2023-01-30T23:01:42.935Z,2.42
2023-01-30T23:04:18.282Z,3.10
2023-01-30T23:06:46.426Z,4.07
2023-01-30T23:09:20.877Z,3.13
2023-01-30T23:12:11.222Z,3.35
2023-01-30T23:14:39.285Z,2.95
2023-01-30T23:17:26.321Z,2.80
2023-01-30T23:19:54.563Z,2.70
2023-01-30T23:22:21.965Z,2.90
2023-01-30T23:24:48.999Z,2.53
2023-01-30T23:27:16.099Z,3.72
2023-01-30T23:29:43.145Z,3.22
2023-01-30T23:32:10.153Z,3.95
2023-01-30T23:34:37.691Z,2.97
2023-01-30T23:37:04.784Z,3.33
2023-01-30T23:39:31.851Z,3.42
2023-01-30T23:41:58.858Z,2.83
2023-01-30T23:44:25.927Z,3.67
2023-01-30T23:46:52.934Z,3.03
2023-01-30T23:49:19.897Z,4.25
2023-01-30T23:51:46.930Z,3.17
2023-01-30T23:54:14.365Z,3.53
2023-01-30T23:56:44.840Z,2.75
2023-01-30T23:59:12.378Z,3.45
